• Join FlightAware (Why Join?)
  • Login
  • US Flag 
09:15AM EDT


 

Airport Tracker/Info


-or-


 

Live Flight TrackerFlight Track Log ✈ ASQ4252 ✈ 17-Jul-2013 ✈ KXNA - KORD

Flight Track Log - Related Links

Times and Time Zones

All times are in EDT time to prevent confusion due to time zone crossing. See the ASQ4252 flight status page for this flight to view local times or setup timezone preferences in your user account.

Time Position Orientation Groundspeed Altitude Reporting Facility
EDT Latitude Longitude Course Direction KTS MPH feet Rate Location/Type
11:01AM 36.2872 -94.4233 322° Northwest 249 287 8,700  Level Kansas City Center
11:02AM 36.7034 -94.3940 351° North  Level FlightAware Approximate
11:02AM 36.3661 -94.4453 347° North 283 326 11,100  Level Kansas City Center
11:03AM 36.7912 -94.4116 351° North  Level FlightAware Approximate
11:03AM 36.4569 -94.4431 North 307 353 12,400  Level Kansas City Center
11:04AM 36.8542 -94.3882 60° Northeast  Level FlightAware Approximate
11:04AM 36.5536 -94.4122 14° North 348 400 13,900  Level Kansas City Center
11:05AM 36.8986 -94.2920 60° Northeast  Level FlightAware Approximate
11:05AM 36.6244 -94.3222 46° Northeast 362 417 16,000  Level Kansas City Center
11:06AM 36.6956 -94.2272 47° Northeast 371 427 17,500 1,500 Climbing Kansas City Center
11:07AM 36.7842 -94.1094 47° Northeast 383 441 19,100 1,740 Climbing Kansas City Center
11:08AM 36.8572 -94.0125 47° Northeast 384 442 21,100 1,920 Climbing Kansas City Center
11:09AM 36.9267 -93.9186 47° Northeast 374 430 23,100 1,680 Climbing Kansas City Center
11:10AM 36.9961 -93.8247 47° Northeast 369 425 24,700 1,620 Climbing Kansas City Center
11:11AM 37.0678 -93.7264 48° Northeast 372 428 26,500 1,500 Climbing Kansas City Center
11:12AM 37.1381 -93.6314 47° Northeast 371 427 27,900 1,320 Climbing Kansas City Center
11:13AM 37.2108 -93.5331 47° Northeast 380 437 29,300 1,560 Climbing Kansas City Center
11:14AM 37.2989 -93.4117 48° Northeast 389 448 31,100 1,500 Climbing Kansas City Center
11:15AM 37.3742 -93.3131 46° Northeast 389 448 32,400 1,080 Climbing Kansas City Center
11:16AM 37.4658 -93.2319 35° Northeast 397 457 33,400 780 Climbing Kansas City Center
11:18AM 37.5845 -93.1011 35° Northeast  Level FlightAware Approximate
11:18AM 37.6539 -93.0608 35° Northeast 415 478 35,000  Level Kansas City Center
11:19AM 37.7494 -92.9700 37° Northeast 426 490 35,000  Level Kansas City Center
11:20AM 37.8692 -92.8800 31° Northeast 418 481 35,000  Level Kansas City Center
11:21AM 37.9828 -92.9022 351° North 415 478 35,000  Level Kansas City Center
11:22AM 38.0967 -92.9450 344° North 421 484 35,000  Level Kansas City Center
11:23AM 38.2131 -92.9881 344° North 427 491 35,000  Level Kansas City Center
11:24AM 38.3297 -92.9686 North 421 484 35,000  Level Kansas City Center
11:25AM 38.4214 -92.8664 41° Northeast 430 495 35,000  Level Kansas City Center
11:26AM 38.5058 -92.7556 46° Northeast 431 496 35,000  Level Kansas City Center
11:28AM 38.5889 -92.6428 47° Northeast 431 496 35,000  Level Kansas City Center
11:29AM 38.6728 -92.5264 47° Northeast 437 503 35,000  Level Kansas City Center
11:30AM 38.7739 -92.3886 47° Northeast 438 504 35,000  Level Kansas City Center
11:31AM 38.8600 -92.2708 47° Northeast 444 511 35,000  Level Kansas City Center
11:32AM 38.9447 -92.1525 47° Northeast 447 514 35,000  Level Kansas City Center
11:33AM 39.0297 -92.0394 46° Northeast 441 507 35,000  Level Kansas City Center
11:34AM 39.1122 -91.9197 48° Northeast 442 509 35,000  Level Kansas City Center
11:35AM 39.1967 -91.8028 47° Northeast 444 511 35,000  Level Kansas City Center
11:36AM 39.2819 -91.6856 47° Northeast 444 511 35,000  Level Kansas City Center
11:37AM 39.3653 -91.5678 48° Northeast 445 512 35,000  Level Kansas City Center
11:38AM 39.4653 -91.4269 47° Northeast 443 510 35,000  Level Kansas City Center
11:39AM 39.5481 -91.3089 48° Northeast 443 510 35,000  Level Kansas City Center
11:40AM 39.6306 -91.1917 48° Northeast 442 509 35,000  Level Kansas City Center
11:41AM 39.7142 -91.0756 47° Northeast 439 505 35,000  Level Kansas City Center
11:42AM 39.8200 -90.9692 38° Northeast 447 514 35,000  Level Kansas City Center
11:43AM 39.9194 -90.8717 37° Northeast 447 514 35,000  Level Kansas City Center
11:44AM 40.0167 -90.7722 38° Northeast 444 511 35,000 -300 Level Kansas City Center
11:45AM 40.1122 -90.6725 39° Northeast 441 507 34,400 -960 Descending Kansas City Center
11:46AM 40.2111 -90.5744 37° Northeast 445 512 33,100 -720 Descending Kansas City Center
11:47AM 40.3267 -90.4544 38° Northeast 442 509 33,000 -60 Descending Kansas City Center
11:48AM 40.4269 -90.3525 38° Northeast 451 519 33,000  Level Kansas City Center
11:49AM 40.5264 -90.2500 38° Northeast 454 522 33,000  Level Kansas City Center
11:50AM 40.6289 -90.1450 38° Northeast 447 514 33,000  Level Kansas City Center
11:51AM 40.7256 -90.0458 38° Northeast 446 513 33,000 -600 Level Kansas City Center
11:52AM 40.8250 -89.9436 38° Northeast 448 516 31,800 -1,920 Descending Kansas City Center
11:53AM 40.9389 -89.8181 40° Northeast 435 501 28,800 -2,580 Descending Chicago Center
11:55AM 41.0419 -89.7128 38° Northeast 460 529 26,200 -2,280 Descending Chicago Center
11:56AM 41.1356 -89.6158 38° Northeast 433 498 24,100 -1,800 Descending Chicago Center
11:57AM 41.2003 -89.4933 55° Northeast 409 471 22,600 -2,220 Descending Chicago Center
11:58AM 41.2653 -89.3303 62° Northeast 416 479 19,600 -2,340 Descending Chicago Center
11:59AM 41.3178 -89.1997 62° Northeast 401 461 17,800 -1,800 Descending Chicago Center
12:00PM 41.3656 -89.0775 62° Northeast 395 455 16,000 -1,860 Descending Chicago Center
12:01PM 41.4156 -88.9525 62° Northeast 386 444 14,000 -2,100 Descending Chicago Center
12:02PM 41.4719 -88.8094 62° Northeast 366 421 11,700 -1,500 Descending Chicago Center
12:03PM 41.5189 -88.6900 62° Northeast 362 417 11,000 -360 Descending Chicago Center
12:04PM 41.5656 -88.5689 63° Northeast 365 420 11,000  Level Chicago Center
12:05PM 41.6172 -88.4528 59° Northeast 364 419 11,000  Level Chicago Center
12:06PM 41.6800 -88.3428 53° Northeast 370 426 11,000  Level Chicago Center
12:07PM 41.7422 -88.2389 51° Northeast 347 399 11,000 -420 Level Chicago Center
12:08PM 41.8139 -88.1147 52° Northeast 333 383 10,200 -1,140 Descending Chicago Center
12:09PM 41.8622 -88.0281 53° Northeast 297 342 8,700 -1,620 Descending Chicago Center
12:10PM 41.8833 -87.9833 58° Northeast 281 323 7,700 -1,080 Descending Chicago TRACON
12:11PM 41.8833 -87.8667 90° East 257 296 7,000 -780 Descending Chicago TRACON
12:12PM 41.8833 -87.7833 90° East 232 267 6,100 -900 Descending Chicago TRACON